Weather observations for the past three days for
Bowman Regional Airport
Metric (Imperial)
Date Time (mdt) Wind (kph) Vis. (km) Weather Sky Cond. Temperature (ºC) Relative Humidity Wind Chill (°C) Heat Index (°C) Pressure Precipitation (cm)
Air Dwpt 6 hour altimeter (cm) sea level (mb) 1 hr 3 hr 6 hr
Max. Min.
09 00:35 NE 20 16.09 Partly Cloudy SCT095 SCT110 9 5 76% 6 75.72 0.0
09 00:15 NE 20 16.09 Mostly Cloudy FEW065 SCT095 BKN120 9 5 76% 6 75.69 0.0
08 23:55 E 15 16.09 Mostly Cloudy FEW055 SCT090 BKN120 10 5 71% 8 75.69 0.0
08 23:35 NE 20 16.09 Light Rain FEW044 SCT060 BKN075 11 5 67% 75.69 0.0
08 23:15 NE 24 16.09 Mostly Cloudy FEW055 SCT070 BKN075 12 4 58% 75.67 0.0
08 22:55 NE 24 16.09 Light Drizzle FEW036 SCT055 OVC100 12 4 58% 75.64 0.0
08 22:35 N 26 G 37 16.09 Light Drizzle FEW035 SCT055 BKN065 12 4 58% 75.67 0.0
08 22:15 NE 31 16.09 Overcast BKN080 OVC100 13 2 47% 75.62 0.0
08 21:55 NE 11 16.09 Overcast OVC100 13 0 41% 75.57 0.0
08 21:35 W 13 16.09 Mostly Cloudy BKN110 11 0 47% 75.54 0.0
08 21:15 W 17 16.09 Fair CLR 11 0 47% 75.51 0.0
08 20:55 W 19 16.09 Fair CLR 12 0 44% 75.51 0.0
08 20:35 W 19 16.09 Fair CLR 12 0 44% 75.51 0.0
08 20:15 W 17 16.09 Fair CLR 14 -1 36% 75.51 0.0
08 19:55 W 15 16.09 Fair CLR 16 0 34% 75.51 0.0
08 19:35 W 17 16.09 Partly Cloudy SCT110 18 0 30% 75.54 0.0
08 19:15 W 20 16.09 Mostly Cloudy BKN110 19 -1 26% 75.54 0.0
08 18:55 NW 24 16.09 A Few Clouds FEW095 19 -1 26% 75.57 0.0
08 18:35 NW 20 G 31 16.09 Mostly Cloudy BKN110 20 -1 24% 75.57 0.0
08 18:15 W 22 G 37 16.09 Overcast OVC100 19 -2 24% 75.59 0.0
08 17:55 W 24 16.09 Mostly Cloudy BKN100 20 -2 23% 75.59 0.0
08 17:35 NW 15 G 28 16.09 A Few Clouds FEW100 20 -3 21% 75.62 0.0
08 17:15 NW 22 G 35 16.09 A Few Clouds FEW100 21 -3 20% 75.62 0.0
08 16:55 NW 31 G 43 16.09 Fair CLR 21 -3 20% 75.64 0.0
08 16:35 W 35 16.09 Fair and Breezy CLR 21 -4 18% 75.67 0.0
08 16:15 NW 28 16.09 Fair CLR 21 -3 20% 75.69 0.0
08 15:55 NW 28 16.09 Fair CLR 20 -5 18% 75.69 0.0
08 15:35 NW 20 G 31 16.09 Fair CLR 20 -4 20% 75.72 0.0
08 15:15 NW 15 G 30 16.09 Fair CLR 20 -5 18% 75.74 0.0
08 14:55 NW 24 G 35 16.09 Fair CLR 20 -4 20% 75.74 0.0
08 14:35 N 22 G 37 16.09 Fair CLR 20 -5 18% 75.77 0.0
08 14:15 NW 17 16.09 Fair CLR 19 -4 21% 75.79 0.0
08 13:55 NW 11 G 31 16.09 Fair CLR 19 -4 21% 75.79 0.0
08 13:35 NW 19 G 33 16.09 Fair CLR 19 -4 21% 75.82 0.0
08 13:15 N 26 G 35 16.09 Fair CLR 19 -3 22% 75.82 0.0
08 12:55 N 13 G 31 16.09 Fair CLR 18 -4 22% 75.84 0.0
08 12:35 NW 24 16.09 Fair CLR 18 -4 22% 75.84 0.0
08 12:15 N 24 G 33 16.09 Fair CLR 18 -4 22% 75.87 0.0
08 11:55 N 26 G 35 16.09 Fair CLR 18 -3 24% 75.87 0.0
08 11:35 NW 30 G 39 16.09 Fair CLR 18 -3 24% 75.9 0.0
08 11:15 N 19 G 31 16.09 Fair CLR 17 -3 25% 75.9 0.0
08 10:55 N 17 G 35 16.09 Fair CLR 17 -3 25% 75.9 0.0
08 10:35 N 26 16.09 Fair CLR 17 -3 25% 75.9 0.0
08 10:15 N 24 G 35 16.09 Fair CLR 16 -3 27% 75.9 0.0
08 09:55 N 30 G 41 16.09 Fair CLR 15 -3 29% 75.9 0.0
08 09:35 N 28 G 39 16.09 Fair CLR 15 -2 31% 75.9 0.0
08 09:15 N 26 16.09 Fair CLR 14 -1 36% 75.9 0.0
08 08:55 N 28 16.09 Fair CLR 14 0 39% 75.87 0.0
08 08:35 NW 20 16.09 Fair CLR 13 1 44% 75.87 0.0
08 08:15 NW 24 16.09 Fair CLR 12 2 51% 75.87 0.0
08 07:55 NW 26 16.09 Fair CLR 11 3 58% 75.84 0.0
08 07:35 NW 35 16.09 Fair and Breezy CLR 10 3 62% 7 75.82 0.0
08 07:15 NW 33 16.09 Fair and Breezy CLR 10 3 62% 7 75.79 0.0
08 06:55 NW 28 16.09 Fair CLR 9 3 66% 6 75.77 0.0
08 06:35 NW 26 16.09 Fair CLR 8 4 76% 5 75.74 0.0
08 06:15 NW 28 16.09 Fair CLR 7 3 76% 3 75.72 0.0
08 05:55 NW 24 16.09 Fair CLR 7 3 76% 4 75.69 0.0
08 05:35 W 22 G 31 16.09 Fair CLR 7 3 76% 4 75.69 0.0
08 05:15 W 24 16.09 Fair CLR 7 3 76% 4 75.67 0.0
08 04:55 W 26 16.09 Fair CLR 6 2 76% 2 75.69 0.0
08 04:35 W 22 16.09 Fair CLR 6 1 71% 2 75.69 0.0
08 04:15 W 22 16.09 Fair CLR 6 0 66% 2 75.69 0.0
08 03:55 W 24 16.09 Fair CLR 6 0 66% 2 75.67 0.0
08 03:35 W 22 16.09 Fair CLR 4 0 75% -0 75.67 0.0
08 03:15 SW 19 16.09 Fair CLR 5 -1 66% 2 75.67 0.0
08 02:55 W 19 16.09 Fair CLR 5 -1 66% 2 75.69 0.0
08 02:35 W 24 16.09 Fair CLR 5 -1 66% 1 75.69 0.0
08 02:15 Vrbl 9 16.09 Fair CLR 4 -2 65% 2 75.72 0.0
08 01:55 SW 13 16.09 Partly Cloudy FEW075 SCT085 4 -2 65% 1 75.72 0.0
08 01:35 SW 11 16.09 Overcast FEW075 BKN085 OVC100 6 -3 53% 4 75.72 0.0
08 01:15 Calm 16.09 Overcast SCT085 OVC100 9 -3 43% 75.72 0.0
08 00:55 SW 9 16.09 Mostly Cloudy BKN100 8 -4 43% 7 75.74 0.0
08 00:35 W 6 16.09 Fair CLR 8 -4 43% 75.74 0.0
08 00:15 NW 6 16.09 Fair CLR 8 -4 43% 75.74 0.0
07 23:55 NW 9 16.09 Fair CLR 8 -3 46% 7 75.77 0.0
07 23:35 NW 13 16.09 Fair CLR 8 -4 43% 6 75.77 0.0
07 23:15 NW 11 16.09 Fair CLR 9 -5 37% 8 75.77 0.0
07 22:55 NW 11 16.09 Fair CLR 9 -5 37% 8 75.77 0.0
07 22:35 NW 9 16.09 Fair CLR 8 -4 43% 7 75.77 0.0
07 22:15 NW 7 16.09 Fair CLR 9 -4 40% 8 75.77 0.0
07 21:55 N 7 16.09 Partly Cloudy SCT110 10 -3 40% 9 75.77 0.0
07 21:35 N 6 16.09 Partly Cloudy SCT110 11 -3 38% 75.74 0.0
07 21:15 NE 7 16.09 Fair CLR 11 -3 38% 75.74 0.0
07 20:55 N 11 16.09 Mostly Cloudy BKN100 11 -2 41% 75.72 0.0
07 20:35 Calm 16.09 Mostly Cloudy BKN100 14 -3 31% 75.69 0.0
07 20:15 Calm 16.09 Overcast OVC090 14 -3 31% 75.69 0.0
07 19:55 Calm 16.09 Overcast OVC080 14 -3 31% 75.67 0.0
07 19:35 N 11 16.09 Mostly Cloudy SCT080 BKN090 14 -3 31% 75.67 0.0
07 19:15 N 11 16.09 Mostly Cloudy SCT090 BKN120 15 -3 29% 75.67 0.0
07 18:55 N 20 16.09 A Few Clouds FEW120 17 -4 24% 75.64 0.0
07 18:35 N 17 16.09 Partly Cloudy FEW070 SCT110 17 -4 24% 75.64 0.0
07 18:15 NW 22 16.09 Mostly Cloudy BKN110 17 -4 24% 75.64 0.0
07 17:55 NW 26 G 37 16.09 A Few Clouds FEW110 18 -5 21% 75.64 0.0
07 17:35 NW 15 G 26 16.09 Fair CLR 18 -4 22% 75.64 0.0
07 17:15 NW 22 16.09 Fair CLR 18 -5 21% 75.64 0.0
07 16:55 NW 19 G 44 16.09 Fair CLR 19 -5 19% 75.64 0.0
07 16:35 W 26 G 43 16.09 Fair CLR 19 -5 19% 75.62 0.0
07 16:15 NW 20 G 31 16.09 Fair CLR 18 -5 21% 75.64 0.0
07 15:55 NW 26 G 39 16.09 A Few Clouds FEW090 18 -5 21% 75.64 0.0
07 15:35 W 24 G 33 16.09 Fair CLR 19 -5 19% 75.67 0.0
07 15:15 NW 19 G 33 16.09 Fair CLR 18 -5 21% 75.69 0.0
07 14:15 W 22 G 41 16.09 Fair CLR 17 -6 20% 75.74 0.0
07 13:55 Vrbl 11 G 22 16.09 Fair CLR 17 -6 20% 75.74 0.0
07 13:35 Vrbl 11 G 22 16.09 Fair CLR 16 -7 20% 75.74 0.0
07 13:15 S 13 G 22 16.09 Fair CLR 16 -7 20% 75.77 0.0
07 12:55 Vrbl 7 G 22 16.09 Fair CLR 15 -8 20% 75.77 0.0
07 12:35 SW 13 G 30 16.09 Fair CLR 15 -6 23% 75.77 0.0
07 12:15 Calm 16.09 Fair CLR 14 -8 21% 75.79 0.0
07 11:55 Vrbl 7 G 19 16.09 Fair CLR 14 -8 21% 75.79 0.0
07 11:35 Vrbl 6 16.09 Fair CLR 14 -9 20% 75.82 0.0
07 11:15 S 13 G 24 16.09 Fair CLR 14 -8 21% 75.82 0.0
07 10:55 Calm 16.09 Fair CLR 14 -9 20% 75.82 0.0
07 10:35 Calm 16.09 Fair CLR 13 -10 19% 75.82 0.0
07 10:15 Calm 16.09 Fair CLR 13 -9 21% 75.84 0.0
07 09:55 Calm 16.09 Fair CLR 12 -10 21% 75.84 0.0
07 09:35 Calm 16.09 Fair CLR 12 -11 19% 75.84 0.0
07 09:15 Vrbl 7 16.09 Fair CLR 11 -10 22% 75.84 0.0
07 08:55 Vrbl 7 16.09 Fair CLR 11 -9 24% 75.84 0.0
07 08:35 Calm 16.09 Fair CLR 10 -10 24% 75.84 0.0
07 08:15 Calm 16.09 Fair CLR 9 -5 37% 75.84 0.0
07 07:55 Calm 16.09 Fair CLR 7 -4 46% 75.84 0.0
07 07:35 SW 7 16.09 Fair CLR 6 -4 49% 5 75.84 0.0
07 07:15 SW 6 16.09 Fair CLR 5 -5 49% 75.84 0.0
07 06:55 W 6 16.09 Fair CLR 3 -3 65% 75.84 0.0
07 06:35 SW 6 16.09 Fair CLR 1 -5 65% 75.82 0.0
07 06:15 Calm 16.09 Fair CLR -1 -6 69% 75.79 0.0
07 05:55 W 7 16.09 Fair CLR 0 -6 64% -2 75.79 0.0
07 05:35 SW 9 16.09 Fair CLR -1 -6 69% -4 75.77 0.0
07 05:15 Calm 16.09 Fair CLR -1 -7 64% 75.77 0.0
07 04:55 Calm 16.09 Fair CLR -1 -6 69% 75.77 0.0
07 04:35 SW 7 16.09 Fair CLR -1 -6 69% -3 75.77 0.0
07 04:15 S 6 16.09 Fair CLR -1 -7 64% 75.77 0.0
07 03:55 S 9 16.09 Fair CLR 0 -7 60% -3 75.77 0.0
07 03:35 S 9 16.09 Fair CLR 0 -7 60% -3 75.77 0.0
07 03:15 Calm 16.09 Fair CLR 0 -7 60% 75.77 0.0
07 02:55 SE 11 16.09 Fair CLR 0 -7 60% -3 75.79 0.0
07 02:35 SE 9 16.09 Fair CLR 0 -7 60% -3 75.79 0.0
07 02:15 SE 17 16.09 Fair CLR 0 -7 60% -4 75.77 0.0
07 01:55 SE 20 16.09 Fair CLR 0 -7 60% -5 75.77 0.0
07 01:35 SE 20 16.09 Fair CLR 0 -7 60% -5 75.79 0.0
07 01:15 SE 20 16.09 Fair CLR 1 -7 56% -4 75.79 0.0
07 00:55 SE 20 16.09 Fair CLR 1 -8 51% -4 75.79 0.0
07 00:35 SE 17 16.09 Fair CLR 1 -8 51% -3 75.79 0.0
07 00:15 SE 20 16.09 Fair CLR 1 -9 48% -4 75.79 0.0
06 23:55 E 17 16.09 Fair CLR 1 -9 48% -3 75.82 0.0
06 23:35 N 15 16.09 Fair CLR 2 -9 44% -2 75.82 0.0
06 23:15 NE 13 16.09 Fair CLR 2 -9 44% -1 75.82 0.0
06 22:55 NE 11 16.09 Fair CLR 3 -8 45% 0 75.82 0.0
06 22:35 NE 9 16.09 Fair CLR 3 -8 45% 1 75.82 0.0
06 22:15 NE 9 16.09 Fair CLR 4 -7 45% 2 75.82 0.0
06 21:55 N 7 16.09 Fair CLR 3 -7 48% 1 75.82 0.0
06 21:35 Calm 16.09 Fair CLR 8 -8 32% 75.79 0.0
06 21:15 NW 6 16.09 Fair CLR 8 -8 32% 75.82 0.0
06 20:55 NW 7 16.09 Fair CLR 8 -8 32% 7 75.82 0.0
06 20:35 NW 9 16.09 Fair CLR 8 -8 32% 7 75.82 0.0
06 20:15 NW 9 16.09 A Few Clouds FEW075 8 -7 34% 7 75.82 0.0
06 19:55 NW 11 16.09 Mostly Cloudy SCT080 BKN085 9 -7 32% 8 75.82 0.0
06 19:35 NW 9 16.09 Mostly Cloudy BKN080 10 -7 30% 9 75.84 0.0
06 19:15 NW 17 16.09 Mostly Cloudy BKN080 11 -7 28% 75.84 0.0
06 18:55 NW 15 16.09 A Few Clouds FEW085 11 -8 26% 75.84 0.0
06 18:35 NW 19 16.09 Partly Cloudy FEW080 SCT090 11 -8 26% 75.87 0.0
06 18:15 W 11 G 26 16.09 Mostly Cloudy SCT075 BKN090 11 -8 26% 75.87 0.0
06 17:55 NW 26 16.09 Mostly Cloudy BKN080 BKN090 12 -8 24% 75.87 0.0
06 17:35 W 22 G 37 16.09 Mostly Cloudy BKN080 BKN085 12 -9 22% 75.9 0.0
06 17:15 NW 17 G 30 16.09 Partly Cloudy SCT080 11 -8 26% 75.9 0.0
06 16:55 NW 26 16.09 Partly Cloudy SCT080 12 -9 22% 75.9 0.0
06 16:35 NW 33 G 43 16.09 Partly Cloudy and Breezy SCT080 12 -9 22% 75.92 0.0
06 16:15 NW 33 G 46 16.09 Mostly Cloudy and Breezy BKN080 12 -9 22% 75.95 0.0
06 15:55 W 24 G 46 16.09 Partly Cloudy SCT080 12 -10 21% 75.97 0.0
06 15:35 NW 22 G 41 16.09 A Few Clouds FEW080 12 -10 21% 76 0.0
06 15:15 W 20 G 41 16.09 Fair CLR 11 -10 22% 76.02 0.0
06 14:55 W 30 G 43 16.09 Fair CLR 12 -10 21% 76.05 0.0
06 14:35 W 28 16.09 A Few Clouds FEW080 11 -10 22% 76.05 0.0
06 14:15 NW 22 G 39 16.09 A Few Clouds FEW080 11 -10 22% 76.07 0.0
06 13:55 NW 26 16.09 A Few Clouds FEW080 11 -10 22% 76.1 0.0
06 13:35 NW 19 G 39 16.09 Fair CLR 10 -11 22% 8 76.12 0.0
06 13:15 W 17 G 35 16.09 Fair CLR 9 -11 23% 7 76.15 0.0
06 12:55 NW 28 16.09 Fair CLR 10 -11 22% 7 76.17 0.0
06 12:35 W 31 16.09 Fair CLR 10 -11 22% 7 76.17 0.0
06 12:15 W 26 G 44 16.09 Fair CLR 9 -12 21% 6 76.23 0.0
06 11:55 NW 19 G 37 16.09 Fair CLR 9 -12 21% 7 76.25 0.0
06 11:35 NW 24 G 35 16.09 Fair CLR 9 -12 21% 6 76.25 0.0
06 11:15 NW 26 G 37 16.09 Fair CLR 8 -12 23% 5 76.28 0.0
06 10:55 NW 28 G 48 16.09 Fair CLR 8 -12 23% 4 76.28 0.0
06 10:35 N 20 G 33 16.09 Fair CLR 7 -11 27% 4 76.3 0.0
06 10:15 NW 26 G 37 16.09 Fair CLR 7 -12 25% 3 76.3 0.0
06 09:55 NW 30 G 41 16.09 Fair CLR 7 -12 25% 3 76.33 0.0
06 09:35 NW 20 G 37 16.09 Fair CLR 6 -11 29% 3 76.33 0.0
06 09:15 NW 22 G 35 16.09 Fair CLR 6 -10 31% 2 76.33 0.0
06 08:55 NW 15 G 28 16.09 Fair CLR 5 -10 33% 2 76.35 0.0
06 08:35 NW 17 16.09 Fair CLR 4 -8 42% 1 76.35 0.0
06 08:15 NW 19 16.09 Fair CLR 4 -7 45% 0 76.35 0.0
06 07:55 NW 15 16.09 Fair CLR 2 -6 56% -2 76.35 0.0
06 07:35 NW 15 16.09 Fair CLR 1 -6 60% -3 76.35 0.0
06 07:15 W 17 16.09 Fair CLR 0 -6 64% -4 76.35 0.0
06 06:55 W 17 16.09 Fair CLR -1 -6 69% -6 76.33 0.0
06 06:35 W 19 16.09 Fair CLR -3 -6 80% -8 76.33 0.0
06 06:15 W 17 16.09 Fair CLR -4 -6 86% -9 76.3 0.0
06 05:55 W 19 16.09 Fair CLR -5 -6 93% -11 76.3 0.0
06 05:35 NW 20 16.09 Fair CLR -5 -7 86% -11 76.3 0.0
06 05:15 NW 17 16.09 Fair CLR -5 -7 86% -10 76.3 0.0
06 04:55 NW 17 16.09 Fair CLR -5 -7 86% -10 76.3 0.0
06 04:35 NW 17 16.09 Fair CLR -5 -7 86% -10 76.3 0.0
06 04:15 NW 17 16.09 Fair CLR -5 -7 86% -10 76.3 0.0
06 03:55 NW 15 16.09 Fair CLR -5 -7 86% -10 76.3 0.0
06 03:35 NW 15 16.09 Fair CLR -4 -7 80% -9 76.28 0.0
06 03:15 NW 17 16.09 Fair CLR -5 -7 86% -10 76.28 0.0
06 02:55 NW 17 16.09 Fair CLR -5 -7 86% -10 76.28 0.0
06 02:35 W 17 16.09 Fair CLR -4 -7 80% -9 76.28 0.0
06 02:15 W 17 16.09 Fair CLR -4 -7 80% -9 76.28 0.0
06 01:55 W 17 16.09 Fair CLR -3 -7 74% -8 76.28 0.0
06 01:35 W 19 16.09 Fair CLR -3 -8 69% -8 76.28 0.0
06 01:15 W 17 16.09 Fair CLR -2 -8 64% -7 76.3 0.0
06 00:55 W 17 16.09 Fair CLR -2 -8 64% -7 76.3 0.0
Date Time (mdt) Wind (kph) Vis. (km) Weather Sky Cond. Air Dwpt Max. Min. Relative Humidity Wind Chill (°C) Heat Index (°C) altimeter (cm) sea level (mb) 1 hr 3 hr 6 hr
6 hour
Temperature (ºC) Pressure Precipitation (cm)